sensor_id;sensor_type;location;lat;lon;timestamp;temperature;humidity
32366;DHT22;18837;46.832;16.838;2022-08-01T00:00:34;24.70;61.30
32366;DHT22;18837;46.832;16.838;2022-08-01T00:03:10;24.70;61.20
32366;DHT22;18837;46.832;16.838;2022-08-01T00:05:36;24.70;61.40
32366;DHT22;18837;46.832;16.838;2022-08-01T00:08:02;24.60;61.30
32366;DHT22;18837;46.832;16.838;2022-08-01T00:10:28;24.60;61.00
32366;DHT22;18837;46.832;16.838;2022-08-01T00:12:57;24.60;61.50
32366;DHT22;18837;46.832;16.838;2022-08-01T00:15:22;24.60;61.70
32366;DHT22;18837;46.832;16.838;2022-08-01T00:24:04;24.50;61.90
32366;DHT22;18837;46.832;16.838;2022-08-01T00:26:29;24.40;62.10
32366;DHT22;18837;46.832;16.838;2022-08-01T00:28:55;24.40;62.50
32366;DHT22;18837;46.832;16.838;2022-08-01T00:31:21;24.40;62.70
32366;DHT22;18837;46.832;16.838;2022-08-01T00:33:46;24.30;62.40
32366;DHT22;18837;46.832;16.838;2022-08-01T00:36:12;24.30;62.40
32366;DHT22;18837;46.832;16.838;2022-08-01T00:38:43;24.30;62.70
32366;DHT22;18837;46.832;16.838;2022-08-01T00:41:09;24.30;62.60
32366;DHT22;18837;46.832;16.838;2022-08-01T00:43:35;24.30;62.90
32366;DHT22;18837;46.832;16.838;2022-08-01T00:46:00;24.30;62.70
32366;DHT22;18837;46.832;16.838;2022-08-01T00:48:26;24.30;62.80
32366;DHT22;18837;46.832;16.838;2022-08-01T00:50:52;24.30;62.80
32366;DHT22;18837;46.832;16.838;2022-08-01T00:53:36;24.30;62.40
32366;DHT22;18837;46.832;16.838;2022-08-01T00:56:20;24.30;62.70
32366;DHT22;18837;46.832;16.838;2022-08-01T00:58:46;24.30;62.60
32366;DHT22;18837;46.832;16.838;2022-08-01T01:01:12;24.30;62.80
32366;DHT22;18837;46.832;16.838;2022-08-01T01:03:38;24.20;62.20
32366;DHT22;18837;46.832;16.838;2022-08-01T01:09:02;24.30;62.30
32366;DHT22;18837;46.832;16.838;2022-08-01T01:17:12;24.20;62.30
32366;DHT22;18837;46.832;16.838;2022-08-01T01:19:47;24.20;62.50
32366;DHT22;18837;46.832;16.838;2022-08-01T01:25:31;24.20;62.50
32366;DHT22;18837;46.832;16.838;2022-08-01T01:31:31;24.20;62.40
32366;DHT22;18837;46.832;16.838;2022-08-01T01:33:59;24.10;62.70
32366;DHT22;18837;46.832;16.838;2022-08-01T01:36:28;24.10;62.80
32366;DHT22;18837;46.832;16.838;2022-08-01T01:38:56;24.10;63.20
32366;DHT22;18837;46.832;16.838;2022-08-01T01:41:22;24.10;63.10
32366;DHT22;18837;46.832;16.838;2022-08-01T01:43:49;24.00;63.30
32366;DHT22;18837;46.832;16.838;2022-08-01T01:46:24;24.00;63.50
32366;DHT22;18837;46.832;16.838;2022-08-01T01:48:54;24.00;63.70
32366;DHT22;18837;46.832;16.838;2022-08-01T01:51:23;24.00;63.80
32366;DHT22;18837;46.832;16.838;2022-08-01T01:53:52;23.90;63.50
32366;DHT22;18837;46.832;16.838;2022-08-01T01:56:20;24.00;63.60
32366;DHT22;18837;46.832;16.838;2022-08-01T01:58:50;23.90;63.80
32366;DHT22;18837;46.832;16.838;2022-08-01T02:01:35;23.80;63.70
32366;DHT22;18837;46.832;16.838;2022-08-01T02:07:35;23.80;63.80
32366;DHT22;18837;46.832;16.838;2022-08-01T02:10:03;23.80;63.70
32366;DHT22;18837;46.832;16.838;2022-08-01T02:12:34;23.80;64.10
32366;DHT22;18837;46.832;16.838;2022-08-01T02:15:02;23.80;63.80
32366;DHT22;18837;46.832;16.838;2022-08-01T02:17:29;23.80;63.40
32366;DHT22;18837;46.832;16.838;2022-08-01T02:20:02;23.80;63.70
32366;DHT22;18837;46.832;16.838;2022-08-01T02:22:59;23.80;63.40
32366;DHT22;18837;46.832;16.838;2022-08-01T02:25:33;23.80;63.50
32366;DHT22;18837;46.832;16.838;2022-08-01T02:28:04;23.80;63.60
32366;DHT22;18837;46.832;16.838;2022-08-01T02:30:33;23.80;63.60
32366;DHT22;18837;46.832;16.838;2022-08-01T02:33:08;23.80;63.50
32366;DHT22;18837;46.832;16.838;2022-08-01T02:35:38;23.80;63.90
32366;DHT22;18837;46.832;16.838;2022-08-01T02:38:17;23.80;63.60
32366;DHT22;18837;46.832;16.838;2022-08-01T02:41:07;23.80;63.60
32366;DHT22;18837;46.832;16.838;2022-08-01T02:43:37;23.80;63.60
32366;DHT22;18837;46.832;16.838;2022-08-01T02:46:04;23.80;63.80
32366;DHT22;18837;46.832;16.838;2022-08-01T02:48:33;23.80;63.90
32366;DHT22;18837;46.832;16.838;2022-08-01T02:51:01;23.70;63.90
32366;DHT22;18837;46.832;16.838;2022-08-01T02:53:31;23.70;64.00
32366;DHT22;18837;46.832;16.838;2022-08-01T02:56:00;23.70;63.90
32366;DHT22;18837;46.832;16.838;2022-08-01T02:58:27;23.70;64.60
32366;DHT22;18837;46.832;16.838;2022-08-01T03:00:54;23.70;64.10
32366;DHT22;18837;46.832;16.838;2022-08-01T03:03:20;23.60;64.50
32366;DHT22;18837;46.832;16.838;2022-08-01T03:05:46;23.60;64.30
32366;DHT22;18837;46.832;16.838;2022-08-01T03:08:15;23.50;64.70
32366;DHT22;18837;46.832;16.838;2022-08-01T03:10:48;23.50;64.60
32366;DHT22;18837;46.832;16.838;2022-08-01T03:13:20;23.50;64.80
32366;DHT22;18837;46.832;16.838;2022-08-01T03:16:00;23.50;64.70
32366;DHT22;18837;46.832;16.838;2022-08-01T03:18:28;23.50;64.90
32366;DHT22;18837;46.832;16.838;2022-08-01T03:20:54;23.40;64.70
32366;DHT22;18837;46.832;16.838;2022-08-01T03:23:22;23.40;65.00
32366;DHT22;18837;46.832;16.838;2022-08-01T03:25:50;23.40;65.40
32366;DHT22;18837;46.832;16.838;2022-08-01T03:28:16;23.40;65.50
32366;DHT22;18837;46.832;16.838;2022-08-01T03:30:47;23.40;64.80
32366;DHT22;18837;46.832;16.838;2022-08-01T03:33:13;23.50;65.40
32366;DHT22;18837;46.832;16.838;2022-08-01T03:35:44;23.50;64.80
32366;DHT22;18837;46.832;16.838;2022-08-01T03:38:13;23.50;64.80
32366;DHT22;18837;46.832;16.838;2022-08-01T03:41:11;23.40;65.00
32366;DHT22;18837;46.832;16.838;2022-08-01T03:43:41;23.40;65.00
32366;DHT22;18837;46.832;16.838;2022-08-01T03:49:45;23.40;64.60
32366;DHT22;18837;46.832;16.838;2022-08-01T03:52:13;23.40;64.60
32366;DHT22;18837;46.832;16.838;2022-08-01T03:54:48;23.40;65.30
32366;DHT22;18837;46.832;16.838;2022-08-01T03:57:14;23.40;65.10
32366;DHT22;18837;46.832;16.838;2022-08-01T03:59:41;23.40;64.50
32366;DHT22;18837;46.832;16.838;2022-08-01T04:02:07;23.40;64.90
32366;DHT22;18837;46.832;16.838;2022-08-01T04:04:43;23.40;64.60
32366;DHT22;18837;46.832;16.838;2022-08-01T04:07:30;23.40;65.10
32366;DHT22;18837;46.832;16.838;2022-08-01T04:09:56;23.40;65.80
32366;DHT22;18837;46.832;16.838;2022-08-01T04:12:22;23.40;65.00
32366;DHT22;18837;46.832;16.838;2022-08-01T04:14:49;23.40;65.20
32366;DHT22;18837;46.832;16.838;2022-08-01T04:17:15;23.40;65.40
32366;DHT22;18837;46.832;16.838;2022-08-01T04:20:03;23.40;65.70
32366;DHT22;18837;46.832;16.838;2022-08-01T04:22:48;23.30;65.50
32366;DHT22;18837;46.832;16.838;2022-08-01T04:25:34;23.30;65.30
32366;DHT22;18837;46.832;16.838;2022-08-01T04:28:03;23.30;65.70
32366;DHT22;18837;46.832;16.838;2022-08-01T04:30:34;23.30;65.70
32366;DHT22;18837;46.832;16.838;2022-08-01T04:33:04;23.30;66.00
32366;DHT22;18837;46.832;16.838;2022-08-01T04:35:32;23.30;66.40
32366;DHT22;18837;46.832;16.838;2022-08-01T04:37:59;23.30;65.90
32366;DHT22;18837;46.832;16.838;2022-08-01T04:40:34;23.30;65.90
32366;DHT22;18837;46.832;16.838;2022-08-01T04:43:01;23.30;66.20
32366;DHT22;18837;46.832;16.838;2022-08-01T04:45:28;23.30;65.60
32366;DHT22;18837;46.832;16.838;2022-08-01T04:47:54;23.40;65.90
32366;DHT22;18837;46.832;16.838;2022-08-01T04:50:22;23.40;65.60
32366;DHT22;18837;46.832;16.838;2022-08-01T04:52:50;23.40;66.00
32366;DHT22;18837;46.832;16.838;2022-08-01T04:55:42;23.40;65.80
32366;DHT22;18837;46.832;16.838;2022-08-01T04:58:19;23.40;65.50
32366;DHT22;18837;46.832;16.838;2022-08-01T05:00:46;23.50;65.80
32366;DHT22;18837;46.832;16.838;2022-08-01T05:03:12;23.50;65.70
32366;DHT22;18837;46.832;16.838;2022-08-01T05:05:38;23.50;65.70
32366;DHT22;18837;46.832;16.838;2022-08-01T05:08:03;23.50;65.50
32366;DHT22;18837;46.832;16.838;2022-08-01T05:10:31;23.50;65.60
32366;DHT22;18837;46.832;16.838;2022-08-01T05:12:57;23.50;65.50
32366;DHT22;18837;46.832;16.838;2022-08-01T05:15:22;23.50;65.70
32366;DHT22;18837;46.832;16.838;2022-08-01T05:17:48;23.50;65.50
32366;DHT22;18837;46.832;16.838;2022-08-01T05:20:14;23.50;65.50
32366;DHT22;18837;46.832;16.838;2022-08-01T05:22:40;23.50;65.70
32366;DHT22;18837;46.832;16.838;2022-08-01T05:25:06;23.50;65.50
32366;DHT22;18837;46.832;16.838;2022-08-01T05:27:32;23.50;65.80
32366;DHT22;18837;46.832;16.838;2022-08-01T05:30:04;23.40;66.00
32366;DHT22;18837;46.832;16.838;2022-08-01T05:32:29;23.40;66.00
32366;DHT22;18837;46.832;16.838;2022-08-01T05:34:57;23.40;65.90
32366;DHT22;18837;46.832;16.838;2022-08-01T05:37:22;23.40;65.90
32366;DHT22;18837;46.832;16.838;2022-08-01T05:39:48;23.40;66.30
32366;DHT22;18837;46.832;16.838;2022-08-01T05:42:14;23.40;66.10
32366;DHT22;18837;46.832;16.838;2022-08-01T05:44:41;23.40;66.40
32366;DHT22;18837;46.832;16.838;2022-08-01T05:47:06;23.40;66.40
32366;DHT22;18837;46.832;16.838;2022-08-01T05:49:32;23.40;66.20
32366;DHT22;18837;46.832;16.838;2022-08-01T05:51:58;23.40;66.20
32366;DHT22;18837;46.832;16.838;2022-08-01T05:54:24;23.40;66.70
32366;DHT22;18837;46.832;16.838;2022-08-01T05:56:50;23.40;66.40
32366;DHT22;18837;46.832;16.838;2022-08-01T05:59:15;23.50;66.10
32366;DHT22;18837;46.832;16.838;2022-08-01T06:01:46;23.50;66.10
32366;DHT22;18837;46.832;16.838;2022-08-01T06:04:13;23.60;66.10
32366;DHT22;18837;46.832;16.838;2022-08-01T06:06:39;23.60;65.80
32366;DHT22;18837;46.832;16.838;2022-08-01T06:09:05;23.70;66.10
32366;DHT22;18837;46.832;16.838;2022-08-01T06:11:30;23.70;65.70
32366;DHT22;18837;46.832;16.838;2022-08-01T06:13:56;23.70;65.70
32366;DHT22;18837;46.832;16.838;2022-08-01T06:16:22;23.70;65.50
32366;DHT22;18837;46.832;16.838;2022-08-01T06:18:48;23.70;65.80
32366;DHT22;18837;46.832;16.838;2022-08-01T06:21:13;23.70;65.60
32366;DHT22;18837;46.832;16.838;2022-08-01T06:23:39;23.70;65.60
32366;DHT22;18837;46.832;16.838;2022-08-01T06:26:06;23.70;65.40
32366;DHT22;18837;46.832;16.838;2022-08-01T06:28:32;23.80;65.20
32366;DHT22;18837;46.832;16.838;2022-08-01T06:30:58;23.80;65.20
32366;DHT22;18837;46.832;16.838;2022-08-01T06:33:25;23.80;65.30
32366;DHT22;18837;46.832;16.838;2022-08-01T06:35:54;23.80;65.40
32366;DHT22;18837;46.832;16.838;2022-08-01T06:38:20;23.80;65.80
32366;DHT22;18837;46.832;16.838;2022-08-01T06:40:46;23.70;65.60
32366;DHT22;18837;46.832;16.838;2022-08-01T06:43:11;23.70;65.80
32366;DHT22;18837;46.832;16.838;2022-08-01T06:45:38;23.70;65.90
32366;DHT22;18837;46.832;16.838;2022-08-01T06:48:04;23.70;65.80
32366;DHT22;18837;46.832;16.838;2022-08-01T06:50:30;23.70;66.20
32366;DHT22;18837;46.832;16.838;2022-08-01T06:52:56;23.60;66.40
32366;DHT22;18837;46.832;16.838;2022-08-01T06:55:22;23.60;66.50
32366;DHT22;18837;46.832;16.838;2022-08-01T06:57:52;23.60;66.60
32366;DHT22;18837;46.832;16.838;2022-08-01T07:00:20;23.60;66.70
32366;DHT22;18837;46.832;16.838;2022-08-01T07:02:49;23.60;66.90
32366;DHT22;18837;46.832;16.838;2022-08-01T07:05:15;23.60;66.90
32366;DHT22;18837;46.832;16.838;2022-08-01T07:07:40;23.60;67.00
32366;DHT22;18837;46.832;16.838;2022-08-01T07:10:06;23.70;66.60
32366;DHT22;18837;46.832;16.838;2022-08-01T07:12:35;23.70;66.00
32366;DHT22;18837;46.832;16.838;2022-08-01T07:15:05;23.80;66.00
32366;DHT22;18837;46.832;16.838;2022-08-01T07:17:30;23.80;65.40
32366;DHT22;18837;46.832;16.838;2022-08-01T07:19:56;23.90;65.60
32366;DHT22;18837;46.832;16.838;2022-08-01T07:22:22;24.00;65.50
32366;DHT22;18837;46.832;16.838;2022-08-01T07:24:47;24.00;65.30
32366;DHT22;18837;46.832;16.838;2022-08-01T07:27:18;24.10;65.10
32366;DHT22;18837;46.832;16.838;2022-08-01T07:29:44;24.10;64.80
32366;DHT22;18837;46.832;16.838;2022-08-01T07:32:10;24.20;65.20
32366;DHT22;18837;46.832;16.838;2022-08-01T07:34:35;24.20;64.90
32366;DHT22;18837;46.832;16.838;2022-08-01T07:37:01;24.30;64.80
32366;DHT22;18837;46.832;16.838;2022-08-01T07:39:27;24.30;64.70
32366;DHT22;18837;46.832;16.838;2022-08-01T07:42:05;24.40;64.80
32366;DHT22;18837;46.832;16.838;2022-08-01T07:44:49;24.40;64.70
32366;DHT22;18837;46.832;16.838;2022-08-01T07:47:15;24.50;64.80
32366;DHT22;18837;46.832;16.838;2022-08-01T07:49:41;24.50;64.80
32366;DHT22;18837;46.832;16.838;2022-08-01T07:52:07;24.50;64.60
32366;DHT22;18837;46.832;16.838;2022-08-01T07:54:34;24.50;64.40
32366;DHT22;18837;46.832;16.838;2022-08-01T07:57:01;24.50;64.50
32366;DHT22;18837;46.832;16.838;2022-08-01T07:59:27;24.50;64.70
32366;DHT22;18837;46.832;16.838;2022-08-01T08:01:54;24.50;65.10
32366;DHT22;18837;46.832;16.838;2022-08-01T08:04:20;24.50;65.60
32366;DHT22;18837;46.832;16.838;2022-08-01T08:06:46;24.50;65.40
32366;DHT22;18837;46.832;16.838;2022-08-01T08:09:13;24.50;65.70
32366;DHT22;18837;46.832;16.838;2022-08-01T08:11:44;24.50;65.70
32366;DHT22;18837;46.832;16.838;2022-08-01T08:14:10;24.50;66.70
32366;DHT22;18837;46.832;16.838;2022-08-01T08:16:55;24.50;66.20
32366;DHT22;18837;46.832;16.838;2022-08-01T08:19:36;24.50;66.30
32366;DHT22;18837;46.832;16.838;2022-08-01T08:22:13;24.50;66.30
32366;DHT22;18837;46.832;16.838;2022-08-01T08:24:39;24.60;66.20
32366;DHT22;18837;46.832;16.838;2022-08-01T08:27:04;24.60;66.30
32366;DHT22;18837;46.832;16.838;2022-08-01T08:29:31;24.70;65.90
32366;DHT22;18837;46.832;16.838;2022-08-01T08:31:58;24.70;65.40
32366;DHT22;18837;46.832;16.838;2022-08-01T08:34:25;24.70;65.40
32366;DHT22;18837;46.832;16.838;2022-08-01T08:36:51;24.80;65.20
32366;DHT22;18837;46.832;16.838;2022-08-01T08:39:18;24.80;65.20
32366;DHT22;18837;46.832;16.838;2022-08-01T08:41:44;24.80;65.20
32366;DHT22;18837;46.832;16.838;2022-08-01T08:44:10;24.80;65.20
32366;DHT22;18837;46.832;16.838;2022-08-01T08:46:47;24.80;65.10
32366;DHT22;18837;46.832;16.838;2022-08-01T08:49:18;24.80;65.00
32366;DHT22;18837;46.832;16.838;2022-08-01T08:51:59;24.80;65.10
32366;DHT22;18837;46.832;16.838;2022-08-01T08:57:48;24.90;66.20
32366;DHT22;18837;46.832;16.838;2022-08-01T09:00:15;24.80;64.90
32366;DHT22;18837;46.832;16.838;2022-08-01T09:02:46;24.90;65.30
32366;DHT22;18837;46.832;16.838;2022-08-01T09:05:12;24.90;64.70
32366;DHT22;18837;46.832;16.838;2022-08-01T09:07:38;25.00;64.70
32366;DHT22;18837;46.832;16.838;2022-08-01T09:10:05;25.00;64.70
32366;DHT22;18837;46.832;16.838;2022-08-01T09:12:31;25.00;64.60
32366;DHT22;18837;46.832;16.838;2022-08-01T09:14:57;25.00;64.60
32366;DHT22;18837;46.832;16.838;2022-08-01T09:17:23;25.00;64.70
32366;DHT22;18837;46.832;16.838;2022-08-01T09:19:54;25.00;64.80
32366;DHT22;18837;46.832;16.838;2022-08-01T09:22:23;25.00;64.70
32366;DHT22;18837;46.832;16.838;2022-08-01T09:25:06;24.90;64.70
32366;DHT22;18837;46.832;16.838;2022-08-01T09:27:41;24.90;66.10
32366;DHT22;18837;46.832;16.838;2022-08-01T09:30:15;24.80;65.10
32366;DHT22;18837;46.832;16.838;2022-08-01T09:33:00;24.80;66.30
32366;DHT22;18837;46.832;16.838;2022-08-01T09:35:55;24.80;65.10
32366;DHT22;18837;46.832;16.838;2022-08-01T09:38:25;24.80;66.50
32366;DHT22;18837;46.832;16.838;2022-08-01T09:40:57;24.80;65.40
32366;DHT22;18837;46.832;16.838;2022-08-01T09:43:26;24.80;65.30
32366;DHT22;18837;46.832;16.838;2022-08-01T09:45:54;24.80;65.20
32366;DHT22;18837;46.832;16.838;2022-08-01T09:48:21;24.80;65.50
32366;DHT22;18837;46.832;16.838;2022-08-01T09:50:52;24.80;65.20
32366;DHT22;18837;46.832;16.838;2022-08-01T09:53:18;24.80;65.30
32366;DHT22;18837;46.832;16.838;2022-08-01T09:55:44;25.00;65.30
32366;DHT22;18837;46.832;16.838;2022-08-01T09:58:10;25.00;65.20
32366;DHT22;18837;46.832;16.838;2022-08-01T10:00:42;25.00;65.10
32366;DHT22;18837;46.832;16.838;2022-08-01T10:03:45;25.10;64.90
32366;DHT22;18837;46.832;16.838;2022-08-01T10:06:21;25.20;65.80
32366;DHT22;18837;46.832;16.838;2022-08-01T10:08:47;25.30;64.80
32366;DHT22;18837;46.832;16.838;2022-08-01T10:11:13;25.40;65.20
32366;DHT22;18837;46.832;16.838;2022-08-01T10:13:39;25.50;65.60
32366;DHT22;18837;46.832;16.838;2022-08-01T10:16:06;25.60;65.60
32366;DHT22;18837;46.832;16.838;2022-08-01T10:18:33;25.70;65.40
32366;DHT22;18837;46.832;16.838;2022-08-01T10:21:04;25.90;65.20
32366;DHT22;18837;46.832;16.838;2022-08-01T10:23:34;26.00;65.40
32366;DHT22;18837;46.832;16.838;2022-08-01T10:26:00;26.10;64.80
32366;DHT22;18837;46.832;16.838;2022-08-01T10:28:30;26.30;64.90
32366;DHT22;18837;46.832;16.838;2022-08-01T10:30:59;26.30;64.80
32366;DHT22;18837;46.832;16.838;2022-08-01T10:33:26;26.40;65.60
32366;DHT22;18837;46.832;16.838;2022-08-01T10:36:10;26.50;64.60
32366;DHT22;18837;46.832;16.838;2022-08-01T10:39:00;26.70;64.80
32366;DHT22;18837;46.832;16.838;2022-08-01T10:41:27;26.70;66.50
32366;DHT22;18837;46.832;16.838;2022-08-01T10:43:54;26.80;64.80
32366;DHT22;18837;46.832;16.838;2022-08-01T10:46:21;26.80;64.70
32366;DHT22;18837;46.832;16.838;2022-08-01T10:49:04;26.80;65.30
32366;DHT22;18837;46.832;16.838;2022-08-01T10:51:35;26.80;66.00
32366;DHT22;18837;46.832;16.838;2022-08-01T10:54:10;26.80;65.90
32366;DHT22;18837;46.832;16.838;2022-08-01T10:56:49;26.80;67.00
32366;DHT22;18837;46.832;16.838;2022-08-01T11:01:59;26.80;67.50
32366;DHT22;18837;46.832;16.838;2022-08-01T11:04:51;26.80;69.40
32366;DHT22;18837;46.832;16.838;2022-08-01T11:07:34;26.80;68.20
32366;DHT22;18837;46.832;16.838;2022-08-01T11:10:47;26.80;68.30
32366;DHT22;18837;46.832;16.838;2022-08-01T11:16:28;26.90;70.40
32366;DHT22;18837;46.832;16.838;2022-08-01T11:18:54;26.90;67.70
32366;DHT22;18837;46.832;16.838;2022-08-01T11:21:20;27.00;66.70
32366;DHT22;18837;46.832;16.838;2022-08-01T11:23:50;27.20;66.40
32366;DHT22;18837;46.832;16.838;2022-08-01T11:26:20;27.20;65.00
32366;DHT22;18837;46.832;16.838;2022-08-01T11:29:16;27.30;64.60
32366;DHT22;18837;46.832;16.838;2022-08-01T11:31:42;27.40;64.00
32366;DHT22;18837;46.832;16.838;2022-08-01T11:34:08;27.50;63.50
32366;DHT22;18837;46.832;16.838;2022-08-01T11:36:34;27.60;63.70
32366;DHT22;18837;46.832;16.838;2022-08-01T11:41:27;27.60;62.90
32366;DHT22;18837;46.832;16.838;2022-08-01T11:44:19;27.70;61.70
32366;DHT22;18837;46.832;16.838;2022-08-01T11:47:04;27.90;61.60
32366;DHT22;18837;46.832;16.838;2022-08-01T11:49:48;28.00;60.70
32366;DHT22;18837;46.832;16.838;2022-08-01T11:52:31;28.10;61.40
32366;DHT22;18837;46.832;16.838;2022-08-01T11:57:29;28.10;61.70
32366;DHT22;18837;46.832;16.838;2022-08-01T12:00:11;28.10;61.60
32366;DHT22;18837;46.832;16.838;2022-08-01T12:02:36;28.10;61.10
32366;DHT22;18837;46.832;16.838;2022-08-01T12:05:16;28.20;61.00
32366;DHT22;18837;46.832;16.838;2022-08-01T12:07:49;28.30;62.00
32366;DHT22;18837;46.832;16.838;2022-08-01T12:10:18;28.30;61.10
32366;DHT22;18837;46.832;16.838;2022-08-01T12:12:49;28.40;60.10
32366;DHT22;18837;46.832;16.838;2022-08-01T12:15:16;28.50;60.30
32366;DHT22;18837;46.832;16.838;2022-08-01T12:18:06;28.50;60.20
32366;DHT22;18837;46.832;16.838;2022-08-01T12:21:00;28.60;59.90
32366;DHT22;18837;46.832;16.838;2022-08-01T12:23:40;28.60;60.90
32366;DHT22;18837;46.832;16.838;2022-08-01T12:26:06;28.60;60.10
32366;DHT22;18837;46.832;16.838;2022-08-01T12:28:39;28.60;60.00
32366;DHT22;18837;46.832;16.838;2022-08-01T12:31:04;28.70;59.90
32366;DHT22;18837;46.832;16.838;2022-08-01T12:33:30;28.70;59.80
32366;DHT22;18837;46.832;16.838;2022-08-01T12:35:56;28.70;59.80
32366;DHT22;18837;46.832;16.838;2022-08-01T12:38:28;28.80;59.50
32366;DHT22;18837;46.832;16.838;2022-08-01T12:40:55;28.80;59.70
32366;DHT22;18837;46.832;16.838;2022-08-01T12:43:22;28.70;60.20
32366;DHT22;18837;46.832;16.838;2022-08-01T12:45:51;28.70;60.20
32366;DHT22;18837;46.832;16.838;2022-08-01T12:48:18;28.70;60.60
32366;DHT22;18837;46.832;16.838;2022-08-01T12:50:46;28.60;61.50
32366;DHT22;18837;46.832;16.838;2022-08-01T12:53:39;28.60;62.40
32366;DHT22;18837;46.832;16.838;2022-08-01T12:56:37;28.60;63.50
32366;DHT22;18837;46.832;16.838;2022-08-01T13:01:49;28.60;64.10
32366;DHT22;18837;46.832;16.838;2022-08-01T13:04:15;28.50;62.90
32366;DHT22;18837;46.832;16.838;2022-08-01T13:06:40;28.50;62.70
32366;DHT22;18837;46.832;16.838;2022-08-01T13:09:08;28.50;61.70
32366;DHT22;18837;46.832;16.838;2022-08-01T13:11:34;28.50;61.70
32366;DHT22;18837;46.832;16.838;2022-08-01T13:14:06;28.50;62.20
32366;DHT22;18837;46.832;16.838;2022-08-01T13:16:32;28.50;60.90
32366;DHT22;18837;46.832;16.838;2022-08-01T13:18:58;28.60;60.60
32366;DHT22;18837;46.832;16.838;2022-08-01T13:21:26;28.70;60.00
32366;DHT22;18837;46.832;16.838;2022-08-01T13:24:09;28.80;59.60
32366;DHT22;18837;46.832;16.838;2022-08-01T13:26:53;28.80;59.10
32366;DHT22;18837;46.832;16.838;2022-08-01T13:29:42;28.80;58.70
32366;DHT22;18837;46.832;16.838;2022-08-01T13:32:25;28.90;58.80
32366;DHT22;18837;46.832;16.838;2022-08-01T13:35:01;29.00;58.40
32366;DHT22;18837;46.832;16.838;2022-08-01T13:37:27;29.00;58.40
32366;DHT22;18837;46.832;16.838;2022-08-01T13:39:52;29.00;58.40
32366;DHT22;18837;46.832;16.838;2022-08-01T13:42:18;29.10;58.70
32366;DHT22;18837;46.832;16.838;2022-08-01T13:44:44;29.10;59.30
32366;DHT22;18837;46.832;16.838;2022-08-01T13:47:18;29.20;58.20
32366;DHT22;18837;46.832;16.838;2022-08-01T13:49:43;29.20;57.50
32366;DHT22;18837;46.832;16.838;2022-08-01T13:52:09;29.20;57.30
32366;DHT22;18837;46.832;16.838;2022-08-01T13:54:35;29.20;57.30
32366;DHT22;18837;46.832;16.838;2022-08-01T13:57:02;29.20;57.30
32366;DHT22;18837;46.832;16.838;2022-08-01T13:59:28;29.20;57.00
32366;DHT22;18837;46.832;16.838;2022-08-01T14:01:53;29.20;57.00
32366;DHT22;18837;46.832;16.838;2022-08-01T14:04:38;29.20;56.80
32366;DHT22;18837;46.832;16.838;2022-08-01T14:07:16;29.20;56.60
32366;DHT22;18837;46.832;16.838;2022-08-01T14:09:42;29.20;56.60
32366;DHT22;18837;46.832;16.838;2022-08-01T14:12:08;29.20;55.90
32366;DHT22;18837;46.832;16.838;2022-08-01T14:14:33;29.30;56.20
32366;DHT22;18837;46.832;16.838;2022-08-01T14:16:59;29.30;56.10
32366;DHT22;18837;46.832;16.838;2022-08-01T14:19:25;29.30;56.00
32366;DHT22;18837;46.832;16.838;2022-08-01T14:21:56;29.30;55.90
32366;DHT22;18837;46.832;16.838;2022-08-01T14:24:23;29.30;55.80
32366;DHT22;18837;46.832;16.838;2022-08-01T14:26:49;29.40;55.80
32366;DHT22;18837;46.832;16.838;2022-08-01T14:29:14;29.40;55.80
32366;DHT22;18837;46.832;16.838;2022-08-01T14:31:40;29.50;55.90
32366;DHT22;18837;46.832;16.838;2022-08-01T14:34:06;29.60;56.00
32366;DHT22;18837;46.832;16.838;2022-08-01T14:36:51;29.60;55.70
32366;DHT22;18837;46.832;16.838;2022-08-01T14:39:30;29.60;56.10
32366;DHT22;18837;46.832;16.838;2022-08-01T14:41:56;29.60;56.00
32366;DHT22;18837;46.832;16.838;2022-08-01T14:44:21;29.60;55.80
32366;DHT22;18837;46.832;16.838;2022-08-01T14:46:47;29.50;55.50
32366;DHT22;18837;46.832;16.838;2022-08-01T14:49:14;29.50;55.60
32366;DHT22;18837;46.832;16.838;2022-08-01T14:51:39;29.50;55.80
32366;DHT22;18837;46.832;16.838;2022-08-01T14:54:05;29.40;55.80
32366;DHT22;18837;46.832;16.838;2022-08-01T14:56:36;29.40;56.40
32366;DHT22;18837;46.832;16.838;2022-08-01T14:59:02;29.40;56.40
32366;DHT22;18837;46.832;16.838;2022-08-01T15:01:28;29.30;56.40
32366;DHT22;18837;46.832;16.838;2022-08-01T15:03:53;29.30;56.40
32366;DHT22;18837;46.832;16.838;2022-08-01T15:06:21;29.20;57.10
32366;DHT22;18837;46.832;16.838;2022-08-01T15:08:46;29.20;56.60
32366;DHT22;18837;46.832;16.838;2022-08-01T15:11:21;29.20;56.80
32366;DHT22;18837;46.832;16.838;2022-08-01T15:14:05;29.20;57.00
32366;DHT22;18837;46.832;16.838;2022-08-01T15:17:02;29.10;57.20
32366;DHT22;18837;46.832;16.838;2022-08-01T15:19:27;29.10;56.90
32366;DHT22;18837;46.832;16.838;2022-08-01T15:21:53;29.20;57.00
32366;DHT22;18837;46.832;16.838;2022-08-01T15:24:19;29.10;56.90
32366;DHT22;18837;46.832;16.838;2022-08-01T15:26:44;29.10;57.00
32366;DHT22;18837;46.832;16.838;2022-08-01T15:29:10;29.10;57.10
32366;DHT22;18837;46.832;16.838;2022-08-01T15:31:41;29.10;57.20
32366;DHT22;18837;46.832;16.838;2022-08-01T15:34:07;29.00;57.30
32366;DHT22;18837;46.832;16.838;2022-08-01T15:36:33;29.00;57.20
32366;DHT22;18837;46.832;16.838;2022-08-01T15:38:59;29.00;57.30
32366;DHT22;18837;46.832;16.838;2022-08-01T15:41:25;29.00;57.30
32366;DHT22;18837;46.832;16.838;2022-08-01T15:43:50;29.00;57.30
32366;DHT22;18837;46.832;16.838;2022-08-01T15:46:34;28.90;57.20
32366;DHT22;18837;46.832;16.838;2022-08-01T15:49:19;28.90;57.30
32366;DHT22;18837;46.832;16.838;2022-08-01T15:52:05;28.90;57.20
32366;DHT22;18837;46.832;16.838;2022-08-01T15:54:31;28.90;57.30
32366;DHT22;18837;46.832;16.838;2022-08-01T15:56:58;28.90;57.30
32366;DHT22;18837;46.832;16.838;2022-08-01T15:59:24;28.90;57.30
32366;DHT22;18837;46.832;16.838;2022-08-01T16:01:49;28.90;57.30
32366;DHT22;18837;46.832;16.838;2022-08-01T16:04:16;28.80;57.50
32366;DHT22;18837;46.832;16.838;2022-08-01T16:06:48;28.80;57.30
32366;DHT22;18837;46.832;16.838;2022-08-01T16:09:14;28.80;57.30
32366;DHT22;18837;46.832;16.838;2022-08-01T16:11:40;28.80;57.30
32366;DHT22;18837;46.832;16.838;2022-08-01T16:14:05;28.80;57.30
32366;DHT22;18837;46.832;16.838;2022-08-01T16:16:31;28.80;57.30
32366;DHT22;18837;46.832;16.838;2022-08-01T16:18:57;28.80;57.40